Time;durP1;ratioP1;P1;durP2;ratioP2;P2;SDS_P1;SDS_P2;PMS_P1;PMS_P2;Temp;Humidity;BMP_temperature;BMP_pressure;BME280_temperature;BME280_humidity;BME280_pressure;Samples;Min_cycle;Max_cycle;Signal;HPM_P1;HPM_P2
2023/09/11 00:01:19;;;;;;;17.95;11.80;;;21.20;99.90;;;;;;5023698;28;20029;-82
2023/09/11 00:03:47;;;;;;;21.65;12.30;;;21.30;99.90;;;;;;5028523;28;20041;-81
2023/09/11 00:06:13;;;;;;;18.25;11.73;;;21.20;99.90;;;;;;5021320;28;20048;-82
2023/09/11 00:08:38;;;;;;;17.80;11.80;;;21.20;99.90;;;;;;5023582;28;20042;-81
2023/09/11 00:11:04;;;;;;;24.23;12.80;;;21.20;99.90;;;;;;5026615;28;20129;-81
2023/09/11 00:13:31;;;;;;;23.35;12.63;;;21.20;99.90;;;;;;5024140;28;20114;-81
2023/09/11 00:15:56;;;;;;;20.85;12.50;;;21.20;99.90;;;;;;5022038;28;20050;-81
2023/09/11 00:18:23;;;;;;;19.48;12.63;;;21.10;99.90;;;;;;5018120;28;20034;-82
2023/09/11 00:20:49;;;;;;;18.75;12.38;;;21.10;99.90;;;;;;5026235;28;20042;-80
2023/09/11 00:23:15;;;;;;;18.27;12.68;;;21.20;99.90;;;;;;5023345;28;20405;-81
2023/09/11 00:25:41;;;;;;;23.75;12.63;;;21.10;99.90;;;;;;5027177;28;20049;-81
2023/09/11 00:28:06;;;;;;;20.27;11.75;;;21.10;99.90;;;;;;5028448;28;20041;-81
2023/09/11 00:30:32;;;;;;;22.10;12.55;;;21.00;99.90;;;;;;5006845;28;20041;-81
2023/09/11 00:32:58;;;;;;;25.30;12.27;;;21.00;99.90;;;;;;5027253;28;20482;-81
2023/09/11 00:35:23;;;;;;;21.05;11.35;;;21.00;99.90;;;;;;5019811;28;20397;-81
2023/09/11 00:37:49;;;;;;;17.92;11.90;;;20.50;99.90;;;;;;5028143;28;20461;-80
2023/09/11 00:40:15;;;;;;;17.88;11.77;;;21.00;99.90;;;;;;5031758;28;20124;-80
2023/09/11 00:42:41;;;;;;;19.05;11.18;;;21.00;99.90;;;;;;5030671;28;20452;-81
2023/09/11 00:45:07;;;;;;;23.73;12.82;;;21.00;99.90;;;;;;5021850;28;20133;-80
2023/09/11 00:47:33;;;;;;;17.50;11.48;;;20.90;99.90;;;;;;5033820;28;20056;-81
2023/09/11 00:49:59;;;;;;;18.85;10.82;;;20.90;99.90;;;;;;5021267;28;20482;-81
2023/09/11 00:52:25;;;;;;;25.33;12.60;;;20.90;99.90;;;;;;5026372;28;20049;-81
2023/09/11 00:54:53;;;;;;;21.73;12.48;;;20.90;99.90;;;;;;5030997;28;20044;-81
2023/09/11 00:57:21;;;;;;;16.58;12.00;;;20.90;99.90;;;;;;5032004;28;20037;-81
2023/09/11 00:59:48;;;;;;;28.60;12.73;;;20.90;99.90;;;;;;5030271;28;20045;-80
2023/09/11 01:02:14;;;;;;;17.45;12.52;;;20.90;99.90;;;;;;5025869;28;20037;-81
2023/09/11 01:04:41;;;;;;;21.27;12.35;;;20.80;99.90;;;;;;5027223;28;20049;-80
2023/09/11 01:07:07;;;;;;;22.38;12.85;;;20.80;99.90;;;;;;5020254;28;20581;-80
2023/09/11 01:09:34;;;;;;;19.17;12.32;;;20.80;99.90;;;;;;5027897;28;20140;-81
2023/09/11 01:11:59;;;;;;;27.50;12.45;;;20.80;99.90;;;;;;5024685;28;20116;-81
2023/09/11 01:14:26;;;;;;;22.10;13.15;;;20.80;99.90;;;;;;5027591;28;20108;-81
2023/09/11 01:17:13;;;;;;;25.70;12.07;;;20.90;99.90;;;;;;5027294;28;20050;-80
2023/09/11 01:19:51;;;;;;;23.40;12.18;;;20.80;99.90;;;;;;5019877;28;20104;-80
2023/09/11 01:22:38;;;;;;;24.92;12.23;;;20.80;99.90;;;;;;5030334;28;20095;-81
2023/09/11 01:25:22;;;;;;;20.98;11.80;;;20.70;99.90;;;;;;5030428;28;20120;-81
2023/09/11 01:27:59;;;;;;;21.25;11.35;;;20.70;99.90;;;;;;5026758;28;20515;-80
2023/09/11 01:30:25;;;;;;;18.25;10.98;;;20.70;99.90;;;;;;5027125;28;20052;-81
2023/09/11 01:32:52;;;;;;;27.88;12.95;;;20.60;99.90;;;;;;5021410;28;20056;-81
2023/09/11 01:35:18;;;;;;;18.77;12.20;;;20.70;99.90;;;;;;5011807;28;20083;-81
2023/09/11 01:37:43;;;;;;;22.48;11.70;;;20.70;99.90;;;;;;5025672;28;20128;-81
2023/09/11 01:40:09;;;;;;;21.58;11.73;;;20.70;99.90;;;;;;5031997;28;20038;-81
2023/09/11 01:42:48;;;;;;;17.00;11.52;;;20.70;99.90;;;;;;5024314;28;20034;-81
2023/09/11 01:45:15;;;;;;;18.10;10.63;;;20.70;99.90;;;;;;5032882;28;20045;-81
2023/09/11 01:47:46;;;;;;;17.85;10.98;;;20.70;99.90;;;;;;5030054;28;20057;-81
2023/09/11 01:50:17;;;;;;;23.77;11.70;;;20.70;99.90;;;;;;5033347;28;20045;-81
2023/09/11 01:52:45;;;;;;;22.67;10.70;;;20.60;99.90;;;;;;5029677;28;20116;-81
2023/09/11 01:55:11;;;;;;;21.75;10.77;;;20.70;99.90;;;;;;5024776;28;20570;-81
2023/09/11 01:57:37;;;;;;;17.38;11.52;;;20.70;99.90;;;;;;5021387;28;20025;-81
2023/09/11 02:00:04;;;;;;;21.00;11.13;;;20.60;99.90;;;;;;5024250;28;20117;-81
2023/09/11 02:02:30;;;;;;;17.40;11.50;;;20.60;99.90;;;;;;5009681;28;20049;-81
2023/09/11 02:04:56;;;;;;;21.10;10.55;;;20.60;99.90;;;;;;5029267;28;20056;-81
2023/09/11 02:07:21;;;;;;;21.98;11.32;;;20.60;99.90;;;;;;5019709;28;20045;-81
2023/09/11 02:09:47;;;;;;;21.67;11.88;;;20.60;99.90;;;;;;5020878;28;20054;-81
2023/09/11 02:12:16;;;;;;;20.58;10.85;;;20.60;99.90;;;;;;5024363;28;20046;-81
2023/09/11 02:14:41;;;;;;;19.35;11.30;;;20.50;99.90;;;;;;5031786;28;20041;-81
2023/09/11 02:17:07;;;;;;;25.42;12.77;;;20.50;99.90;;;;;;5027762;28;20508;-81
2023/09/11 02:19:33;;;;;;;18.13;11.27;;;20.50;99.90;;;;;;5004337;28;20077;-81
2023/09/11 02:22:00;;;;;;;18.17;10.95;;;20.50;99.90;;;;;;5027649;28;20046;-81
2023/09/11 02:24:25;;;;;;;21.85;11.55;;;20.50;99.90;;;;;;5021483;28;20038;-81
2023/09/11 02:26:51;;;;;;;22.40;11.10;;;20.40;99.90;;;;;;5031942;28;20420;-82
2023/09/11 02:29:16;;;;;;;23.13;11.43;;;20.50;99.90;;;;;;5025545;28;20041;-81
2023/09/11 02:31:42;;;;;;;24.95;12.18;;;20.40;99.90;;;;;;5030421;28;20079;-81
2023/09/11 02:34:08;;;;;;;19.05;11.35;;;20.40;99.90;;;;;;5020940;28;20044;-81
2023/09/11 02:36:33;;;;;;;26.77;12.65;;;20.70;99.90;;;;;;5034034;28;20088;-81
2023/09/11 02:38:59;;;;;;;17.63;10.80;;;20.30;99.90;;;;;;5019829;28;20134;-81
2023/09/11 02:41:25;;;;;;;22.20;11.57;;;20.30;99.90;;;;;;5031057;28;20037;-81
2023/09/11 02:43:50;;;;;;;18.83;11.95;;;20.30;99.90;;;;;;5026692;28;20419;-81
2023/09/11 02:46:16;;;;;;;22.88;11.93;;;20.30;99.90;;;;;;5023639;28;20073;-81
2023/09/11 02:48:47;;;;;;;19.50;10.95;;;20.30;99.90;;;;;;5025074;28;20535;-81
2023/09/11 02:51:13;;;;;;;20.60;11.27;;;20.30;99.90;;;;;;5025086;28;20170;-81
2023/09/11 02:53:39;;;;;;;24.85;11.38;;;20.30;99.90;;;;;;5029423;28;20065;-80
2023/09/11 02:56:05;;;;;;;17.83;10.98;;;20.30;99.90;;;;;;5025347;28;20065;-81
2023/09/11 02:58:31;;;;;;;20.38;11.32;;;20.30;99.90;;;;;;5021552;28;20080;-80
2023/09/11 03:01:04;;;;;;;25.92;12.48;;;20.30;99.90;;;;;;5019453;28;20483;-80
2023/09/11 03:03:32;;;;;;;16.08;11.13;;;20.20;99.90;;;;;;5022231;28;20037;-81
2023/09/11 03:06:00;;;;;;;22.40;11.85;;;20.20;99.90;;;;;;5028213;28;20068;-81
2023/09/11 03:08:26;;;;;;;26.00;11.88;;;20.20;99.90;;;;;;5019602;28;20065;-81
2023/09/11 03:10:52;;;;;;;17.67;10.27;;;20.20;99.90;;;;;;5025405;28;20129;-81
2023/09/11 03:13:18;;;;;;;20.40;12.45;;;20.20;99.90;;;;;;5017578;28;20128;-81
2023/09/11 03:15:43;;;;;;;22.80;12.23;;;20.20;99.90;;;;;;5029893;28;20171;-81
2023/09/11 03:18:10;;;;;;;29.15;12.30;;;20.20;99.90;;;;;;5032705;28;20038;-81
2023/09/11 03:20:35;;;;;;;29.58;12.05;;;20.10;99.90;;;;;;5026582;28;20037;-80
2023/09/11 03:23:01;;;;;;;23.65;11.65;;;20.10;99.90;;;;;;5025657;28;20056;-81
2023/09/11 03:25:27;;;;;;;19.95;11.30;;;20.20;99.90;;;;;;5027311;28;20716;-80
2023/09/11 03:27:53;;;;;;;25.13;11.35;;;20.20;99.90;;;;;;5018871;28;20053;-81
2023/09/11 03:30:18;;;;;;;25.17;10.98;;;20.10;99.90;;;;;;5031068;28;20046;-81
2023/09/11 03:32:44;;;;;;;24.27;11.45;;;20.10;99.90;;;;;;5025359;28;20037;-81
2023/09/11 03:35:10;;;;;;;24.38;11.05;;;20.20;99.90;;;;;;5019644;28;20409;-81
2023/09/11 03:37:36;;;;;;;28.83;12.18;;;20.20;99.90;;;;;;5025873;28;20041;-81
2023/09/11 03:40:07;;;;;;;27.58;11.77;;;20.10;99.90;;;;;;5020148;28;20478;-81
2023/09/11 03:42:35;;;;;;;26.77;11.70;;;20.20;99.90;;;;;;5023759;28;20053;-81
2023/09/11 03:45:01;;;;;;;29.08;12.15;;;20.10;99.90;;;;;;5005181;28;20053;-81
2023/09/11 03:47:27;;;;;;;26.02;12.13;;;20.10;99.90;;;;;;5022533;28;20132;-81
2023/09/11 03:49:53;;;;;;;24.73;12.63;;;20.10;99.90;;;;;;5025879;28;20053;-80
2023/09/11 03:52:18;;;;;;;26.73;11.98;;;20.10;99.90;;;;;;5026226;28;20065;-81
2023/09/11 03:54:44;;;;;;;19.48;10.80;;;20.10;99.90;;;;;;5015466;28;20446;-81
2023/09/11 03:57:10;;;;;;;24.45;12.65;;;20.10;99.90;;;;;;5021515;28;20041;-80
2023/09/11 03:59:36;;;;;;;23.23;11.90;;;20.10;99.90;;;;;;5023436;28;20046;-81
2023/09/11 04:02:01;;;;;;;24.33;11.48;;;20.10;99.90;;;;;;5025114;28;20444;-82
2023/09/11 04:04:27;;;;;;;23.33;11.30;;;20.10;99.90;;;;;;5023128;28;20045;-82
2023/09/11 04:06:53;;;;;;;26.27;12.35;;;20.10;99.90;;;;;;5022828;28;20116;-80
2023/09/11 04:09:18;;;;;;;26.20;12.60;;;20.10;99.90;;;;;;5019725;28;20046;-82
2023/09/11 04:11:44;;;;;;;24.83;12.18;;;20.10;99.90;;;;;;5020492;28;20044;-82
2023/09/11 04:14:10;;;;;;;24.70;11.63;;;20.10;99.90;;;;;;5026782;28;20052;-82
2023/09/11 04:16:35;;;;;;;23.98;11.88;;;20.10;99.90;;;;;;5024458;28;20041;-81
2023/09/11 04:19:01;;;;;;;26.70;12.27;;;20.10;99.90;;;;;;5030128;28;20073;-82
2023/09/11 04:21:27;;;;;;;23.27;11.95;;;20.00;99.90;;;;;;5007543;28;20448;-82
2023/09/11 04:23:52;;;;;;;22.85;11.52;;;19.90;99.90;;;;;;5002828;28;20512;-82
2023/09/11 04:26:18;;;;;;;21.35;11.10;;;20.10;99.90;;;;;;5029475;28;20045;-82
2023/09/11 04:28:44;;;;;;;29.30;12.52;;;20.00;99.90;;;;;;5026784;28;20116;-81
2023/09/11 04:31:09;;;;;;;25.95;12.18;;;20.00;99.90;;;;;;5019022;28;20053;-81
2023/09/11 04:33:35;;;;;;;23.67;11.23;;;20.00;99.90;;;;;;5030117;28;20038;-82
2023/09/11 04:36:01;;;;;;;18.88;10.88;;;20.00;99.90;;;;;;5022293;28;20401;-82
2023/09/11 04:38:27;;;;;;;19.13;10.95;;;19.70;99.90;;;;;;5020189;28;20061;-81
2023/09/11 04:40:59;;;;;;;21.00;12.13;;;20.00;99.90;;;;;;5019517;28;20041;-81
2023/09/11 04:43:25;;;;;;;24.10;12.10;;;20.00;99.90;;;;;;5032383;28;20046;-81
2023/09/11 04:45:51;;;;;;;21.63;10.15;;;20.00;99.90;;;;;;5027266;28;20057;-81
2023/09/11 04:48:16;;;;;;;25.98;11.85;;;19.90;99.90;;;;;;5002038;28;20088;-81
2023/09/11 04:50:42;;;;;;;23.80;12.45;;;19.90;99.90;;;;;;5018086;28;20050;-82
2023/09/11 04:53:08;;;;;;;25.73;12.27;;;19.90;99.90;;;;;;5023587;28;20034;-82
2023/09/11 04:55:34;;;;;;;23.02;12.60;;;20.00;99.90;;;;;;5018302;28;20057;-82
2023/09/11 04:58:00;;;;;;;28.52;12.70;;;19.90;99.90;;;;;;5019719;28;20117;-81
2023/09/11 05:00:26;;;;;;;23.35;12.27;;;19.90;99.90;;;;;;5013895;28;20068;-82
2023/09/11 05:02:52;;;;;;;25.73;11.90;;;19.90;99.90;;;;;;5010375;28;20160;-81
2023/09/11 05:05:18;;;;;;;24.60;12.50;;;19.90;99.90;;;;;;5021188;28;20128;-82
2023/09/11 05:07:43;;;;;;;33.78;12.48;;;19.90;99.90;;;;;;5021051;28;20057;-82
2023/09/11 05:10:09;;;;;;;23.88;12.52;;;19.90;99.90;;;;;;5023363;28;20045;-82
2023/09/11 05:12:35;;;;;;;28.35;12.68;;;19.90;99.90;;;;;;5004140;28;20038;-83
2023/09/11 05:15:02;;;;;;;23.85;11.88;;;19.90;99.90;;;;;;5029107;28;20131;-83
2023/09/11 05:17:28;;;;;;;24.30;11.57;;;19.90;99.90;;;;;;5028255;28;20052;-82
2023/09/11 05:19:54;;;;;;;30.83;13.20;;;19.90;99.90;;;;;;5023030;28;20046;-82
2023/09/11 05:22:19;;;;;;;22.10;11.55;;;19.90;99.90;;;;;;5028264;28;20030;-82
2023/09/11 05:24:45;;;;;;;22.05;10.85;;;20.00;99.90;;;;;;5033172;28;20120;-82
2023/09/11 05:27:11;;;;;;;23.23;12.27;;;19.90;99.90;;;;;;5031225;28;20045;-83
2023/09/11 05:29:36;;;;;;;31.48;13.20;;;19.90;99.90;;;;;;5022618;28;20037;-85
2023/09/11 05:32:02;;;;;;;23.98;12.75;;;19.90;99.90;;;;;;5023052;28;20516;-81
2023/09/11 05:34:28;;;;;;;31.25;14.02;;;19.90;99.90;;;;;;5025850;28;20049;-81
2023/09/11 05:36:54;;;;;;;21.80;12.95;;;19.90;99.90;;;;;;5026315;28;20049;-81
2023/09/11 05:39:20;;;;;;;39.53;18.27;;;19.90;99.90;;;;;;5020136;28;20366;-81
2023/09/11 05:41:46;;;;;;;38.42;24.15;;;20.00;99.90;;;;;;5021445;28;20037;-85
2023/09/11 05:44:12;;;;;;;31.80;19.13;;;19.90;99.90;;;;;;5026073;28;20451;-92
2023/09/11 05:46:38;;;;;;;29.00;14.18;;;20.00;99.90;;;;;;5030208;28;20049;-91
2023/09/11 05:49:25;;;;;;;26.40;13.85;;;20.00;99.90;;;;;;5031280;28;20077;-90
2023/09/11 05:51:55;;;;;;;27.15;13.98;;;19.90;99.90;;;;;;5014382;28;20144;-89
2023/09/11 05:54:21;;;;;;;29.95;13.07;;;19.70;99.90;;;;;;5014435;28;20502;-85
2023/09/11 05:56:47;;;;;;;25.30;13.18;;;20.00;99.90;;;;;;4330475;28;10000705;-89
2023/09/11 05:59:14;;;;;;;27.52;14.18;;;20.00;99.90;;;;;;5001072;28;20062;-88
2023/09/11 06:01:40;;;;;;;32.45;14.57;;;20.10;99.90;;;;;;5029777;28;20045;-89
2023/09/11 06:04:06;;;;;;;29.90;14.88;;;20.10;99.90;;;;;;5029121;28;20052;-88
2023/09/11 06:06:32;;;;;;;38.13;19.13;;;19.10;99.90;;;;;;5025312;28;20036;-88
2023/09/11 06:08:59;;;;;;;28.90;15.50;;;20.10;99.90;;;;;;5012307;28;20057;-88
2023/09/11 06:11:25;;;;;;;27.60;13.68;;;20.10;99.90;;;;;;5027305;28;20127;-88
2023/09/11 06:13:51;;;;;;;23.35;12.68;;;20.20;99.90;;;;;;5026094;28;20524;-89
2023/09/11 06:16:18;;;;;;;26.27;13.20;;;20.20;99.90;;;;;;5021718;28;20107;-89
2023/09/11 06:18:44;;;;;;;26.95;13.57;;;20.30;99.90;;;;;;5019489;28;20180;-89
2023/09/11 06:21:10;;;;;;;30.33;21.80;;;20.20;99.90;;;;;;5007110;28;20140;-87
2023/09/11 06:23:36;;;;;;;31.13;20.63;;;20.30;99.90;;;;;;5010079;28;20040;-88
2023/09/11 06:26:01;;;;;;;24.92;13.38;;;20.40;99.90;;;;;;5017939;28;20145;-90
2023/09/11 06:28:27;;;;;;;21.00;13.07;;;20.40;99.90;;;;;;5029592;28;20107;-89
2023/09/11 06:30:53;;;;;;;21.40;12.27;;;20.50;99.90;;;;;;5024935;28;20147;-89
2023/09/11 06:33:19;;;;;;;31.20;13.80;;;20.50;99.90;;;;;;5026947;28;20033;-88
2023/09/11 06:35:45;;;;;;;26.10;13.45;;;20.50;99.90;;;;;;5030416;28;20053;-88
2023/09/11 06:38:11;;;;;;;21.73;12.82;;;20.50;99.90;;;;;;5028942;28;20053;-89
2023/09/11 06:40:37;;;;;;;31.25;23.60;;;20.60;99.90;;;;;;5024646;28;20378;-89
2023/09/11 06:43:03;;;;;;;26.95;13.15;;;20.50;99.90;;;;;;5029847;28;20496;-89
2023/09/11 06:45:33;;;;;;;24.05;12.88;;;20.70;99.90;;;;;;5029665;28;20041;-89
2023/09/11 06:47:59;;;;;;;32.13;14.15;;;20.70;99.90;;;;;;5011960;28;20042;-90
2023/09/11 06:50:24;;;;;;;22.60;13.55;;;20.50;99.90;;;;;;5028109;28;20045;-89
2023/09/11 06:52:50;;;;;;;25.92;13.68;;;20.80;99.90;;;;;;5010849;28;20393;-88
2023/09/11 06:55:16;;;;;;;21.48;13.15;;;20.90;99.90;;;;;;5029512;28;20076;-89
2023/09/11 06:57:57;;;;;;;31.00;13.43;;;20.90;99.90;;;;;;5028704;28;20056;-89
2023/09/11 07:00:23;;;;;;;27.50;13.15;;;20.90;99.90;;;;;;5028738;28;20693;-86
2023/09/11 07:02:49;;;;;;;18.08;13.15;;;20.90;99.90;;;;;;5024920;28;20037;-89
2023/09/11 07:05:16;;;;;;;26.58;13.38;;;21.00;99.90;;;;;;5030254;28;20099;-90
2023/09/11 07:07:42;;;;;;;27.33;13.32;;;21.00;99.90;;;;;;5024276;28;20049;-91
2023/09/11 07:10:12;;;;;;;26.10;13.05;;;21.00;99.90;;;;;;5009699;28;20052;-89
2023/09/11 07:12:41;;;;;;;25.17;13.32;;;21.10;99.90;;;;;;5027788;28;20030;-90
2023/09/11 07:15:10;;;;;;;25.70;13.55;;;21.10;99.90;;;;;;5029056;28;20489;-89
2023/09/11 07:17:36;;;;;;;22.83;13.60;;;21.20;99.90;;;;;;5029233;28;20046;-90
2023/09/11 07:20:13;;;;;;;26.40;12.75;;;21.20;99.90;;;;;;5027991;28;20539;-90
2023/09/11 07:22:39;;;;;;;23.27;12.07;;;21.20;99.90;;;;;;5021253;28;20077;-88
2023/09/11 07:25:18;;;;;;;25.40;13.65;;;21.30;99.90;;;;;;5045206;28;20081;-90
2023/09/11 07:27:54;;;;;;;23.73;13.50;;;20.60;99.90;;;;;;5007195;28;20047;-90
2023/09/11 07:30:29;;;;;;;23.75;14.07;;;21.40;99.90;;;;;;5010035;28;20041;-89
2023/09/11 07:32:55;;;;;;;22.25;13.50;;;20.60;99.90;;;;;;5021883;28;20038;-85
2023/09/11 07:35:21;;;;;;;25.08;13.68;;;21.60;99.90;;;;;;5034328;28;20083;-82
2023/09/11 07:37:48;;;;;;;22.85;13.45;;;20.90;99.90;;;;;;5022393;28;20103;-85
2023/09/11 07:40:14;;;;;;;28.67;13.13;;;21.70;99.90;;;;;;5021642;28;20040;-85
2023/09/11 07:42:39;;;;;;;27.40;13.68;;;21.70;99.90;;;;;;5024419;28;20409;-83
2023/09/11 07:45:06;;;;;;;27.75;13.18;;;21.80;99.90;;;;;;5024001;28;20041;-83
2023/09/11 07:47:32;;;;;;;23.60;11.93;;;21.80;99.90;;;;;;5018810;28;20048;-85
2023/09/11 07:49:57;;;;;;;21.52;11.90;;;21.90;99.90;;;;;;5004043;28;20124;-83
2023/09/11 07:52:24;;;;;;;20.80;11.27;;;21.90;99.90;;;;;;5029691;28;20505;-84
2023/09/11 07:54:50;;;;;;;21.98;12.00;;;22.00;99.90;;;;;;5025470;28;20045;-82
2023/09/11 07:57:17;;;;;;;25.15;12.20;;;22.00;99.90;;;;;;5022189;28;20366;-83
2023/09/11 07:59:43;;;;;;;14.95;11.07;;;22.10;99.90;;;;;;5025335;28;20375;-81
2023/09/11 08:02:08;;;;;;;24.42;11.57;;;22.20;99.90;;;;;;5026908;28;20234;-83
2023/09/11 08:04:35;;;;;;;17.25;11.50;;;22.20;99.90;;;;;;5026688;28;20112;-82
2023/09/11 08:07:01;;;;;;;19.63;11.07;;;22.20;99.90;;;;;;5021736;28;20112;-83
2023/09/11 08:09:27;;;;;;;22.45;11.10;;;22.40;99.90;;;;;;5027710;28;20450;-83
2023/09/11 08:11:53;;;;;;;22.55;10.73;;;22.40;99.90;;;;;;5026793;28;20041;-81
2023/09/11 08:14:21;;;;;;;20.08;10.88;;;22.50;99.90;;;;;;5028557;28;20041;-82
2023/09/11 08:16:49;;;;;;;19.55;10.60;;;22.50;99.90;;;;;;5022203;28;20042;-82
2023/09/11 08:19:15;;;;;;;22.90;10.43;;;22.60;99.90;;;;;;5023154;28;20049;-82
2023/09/11 08:21:44;;;;;;;15.02;10.10;;;22.70;99.90;;;;;;5029191;28;20382;-82
2023/09/11 08:24:09;;;;;;;22.42;10.73;;;22.80;99.90;;;;;;5020785;28;20044;-82
2023/09/11 08:26:38;;;;;;;22.15;10.40;;;22.80;99.90;;;;;;5019404;28;20045;-82
2023/09/11 08:29:04;;;;;;;20.63;10.13;;;22.90;99.90;;;;;;5024687;28;20089;-82
2023/09/11 08:31:29;;;;;;;16.38;10.27;;;23.00;99.90;;;;;;5020912;28;20084;-82
2023/09/11 08:33:55;;;;;;;21.90;10.35;;;23.10;99.90;;;;;;5031853;28;20561;-83
2023/09/11 08:36:21;;;;;;;23.83;13.02;;;23.10;99.90;;;;;;5023988;28;20045;-82
2023/09/11 08:38:47;;;;;;;21.50;9.15;;;23.20;99.90;;;;;;5029539;28;20063;-83
2023/09/11 08:41:14;;;;;;;15.82;8.63;;;23.20;99.90;;;;;;5023414;28;20088;-81
2023/09/11 08:43:40;;;;;;;17.08;9.43;;;23.30;99.90;;;;;;5025249;28;20571;-83
2023/09/11 08:46:17;;;;;;;21.95;9.38;;;23.40;99.90;;;;;;5031116;28;20072;-81
2023/09/11 08:48:48;;;;;;;16.27;9.15;;;23.40;99.90;;;;;;5029774;28;20076;-81
2023/09/11 08:51:32;;;;;;;22.27;9.07;;;23.50;99.90;;;;;;5023005;28;20129;-82
2023/09/11 08:54:02;;;;;;;18.65;9.32;;;23.60;99.90;;;;;;5026715;28;20067;-82
2023/09/11 08:56:30;;;;;;;18.27;8.95;;;23.60;99.90;;;;;;5026850;28;20046;-82
2023/09/11 08:58:57;;;;;;;14.30;9.10;;;23.70;99.90;;;;;;5025965;28;20083;-81
2023/09/11 09:01:24;;;;;;;21.02;9.35;;;23.70;99.90;;;;;;5026803;28;20042;-82
2023/09/11 09:03:51;;;;;;;19.13;8.55;;;23.80;99.90;;;;;;5031303;28;20692;-81
2023/09/11 09:06:18;;;;;;;17.30;9.25;;;23.90;99.90;;;;;;5032945;28;20470;-83
2023/09/11 09:08:45;;;;;;;16.63;9.07;;;23.80;99.90;;;;;;5031888;28;20045;-82
2023/09/11 09:11:11;;;;;;;14.10;8.70;;;24.00;99.90;;;;;;5028361;28;20397;-81
2023/09/11 09:13:38;;;;;;;24.10;9.80;;;24.20;99.90;;;;;;5022743;28;20129;-83
2023/09/11 09:16:04;;;;;;;17.75;10.38;;;24.10;99.90;;;;;;5028051;28;20524;-83
2023/09/11 09:18:30;;;;;;;23.52;10.18;;;24.10;99.90;;;;;;5030605;28;20046;-83
2023/09/11 09:20:56;;;;;;;19.83;9.60;;;24.20;99.90;;;;;;5027881;28;20042;-83
2023/09/11 09:23:35;;;;;;;21.13;9.60;;;24.30;99.90;;;;;;5017519;28;20117;-82
2023/09/11 09:26:09;;;;;;;16.45;10.68;;;24.30;99.90;;;;;;5021986;28;20053;-82
2023/09/11 09:28:42;;;;;;;19.10;10.82;;;24.40;99.90;;;;;;5022276;28;20124;-83
2023/09/11 09:31:12;;;;;;;18.63;9.13;;;24.40;99.90;;;;;;5027268;28;20512;-82
2023/09/11 09:33:38;;;;;;;18.73;10.70;;;24.40;99.90;;;;;;5027214;28;20077;-82
2023/09/11 09:36:06;;;;;;;22.20;11.02;;;24.50;99.90;;;;;;5020573;28;20478;-82
2023/09/11 09:38:32;;;;;;;20.13;11.60;;;24.50;99.90;;;;;;5024030;28;20470;-82
2023/09/11 09:41:07;;;;;;;24.20;11.63;;;24.60;99.90;;;;;;5029749;28;20068;-82
2023/09/11 09:43:32;;;;;;;18.25;12.15;;;24.60;99.90;;;;;;5023611;28;20042;-82
2023/09/11 09:45:59;;;;;;;19.95;10.57;;;24.70;99.90;;;;;;5027600;28;20045;-82
2023/09/11 09:48:25;;;;;;;20.42;11.32;;;24.70;99.90;;;;;;5021375;28;20494;-83
2023/09/11 09:50:59;;;;;;;19.00;11.82;;;24.90;99.90;;;;;;5028747;28;20052;-83
2023/09/11 09:53:41;;;;;;;18.85;12.10;;;25.00;99.90;;;;;;5027183;28;20440;-82
2023/09/11 09:56:08;;;;;;;15.07;11.80;;;25.00;99.90;;;;;;5030410;28;20171;-82
2023/09/11 09:58:36;;;;;;;30.25;14.30;;;25.00;99.90;;;;;;5005657;28;20572;-81
2023/09/11 10:01:14;;;;;;;18.85;11.82;;;25.00;99.90;;;;;;5006637;28;20146;-83
2023/09/11 10:03:43;;;;;;;20.38;12.00;;;25.10;99.90;;;;;;5030522;28;20041;-83
2023/09/11 10:06:13;;;;;;;19.20;12.85;;;25.10;99.90;;;;;;5030453;28;20057;-81
2023/09/11 10:08:39;;;;;;;17.15;12.10;;;25.20;99.90;;;;;;5025533;28;20046;-81
2023/09/11 10:11:04;;;;;;;20.35;10.85;;;25.20;99.90;;;;;;5028390;28;20046;-82
2023/09/11 10:13:32;;;;;;;16.38;12.07;;;25.30;99.90;;;;;;5025551;28;20045;-82
2023/09/11 10:15:58;;;;;;;20.42;13.32;;;25.30;99.90;;;;;;5023186;28;20497;-82
2023/09/11 10:18:24;;;;;;;15.68;11.75;;;25.30;99.90;;;;;;5021358;28;20512;-81
2023/09/11 10:20:50;;;;;;;18.67;11.98;;;25.40;99.90;;;;;;5021443;28;20046;-82
2023/09/11 10:23:16;;;;;;;18.15;12.95;;;25.50;99.90;;;;;;5031128;28;20498;-80
2023/09/11 10:25:50;;;;;;;18.45;12.20;;;25.50;99.90;;;;;;5016727;28;20049;-80
2023/09/11 10:28:31;;;;;;;17.17;12.57;;;25.60;99.90;;;;;;5023712;28;20453;-82
2023/09/11 10:31:37;;;;;;;19.60;11.82;;;25.60;99.90;;;;;;5021655;28;20529;-81
2023/09/11 10:34:06;;;;;;;17.58;11.35;;;25.70;99.90;;;;;;5029249;28;20033;-80
2023/09/11 10:36:38;;;;;;;18.40;12.90;;;25.80;99.90;;;;;;5024030;28;20052;-84
2023/09/11 10:39:05;;;;;;;20.17;14.05;;;25.80;99.90;;;;;;5022388;28;20088;-82
2023/09/11 10:41:32;;;;;;;20.30;12.23;;;25.30;99.90;;;;;;5023086;28;20042;-81
2023/09/11 10:43:58;;;;;;;36.15;31.83;;;25.80;99.90;;;;;;5021127;28;20099;-82
2023/09/11 10:46:23;;;;;;;25.58;14.07;;;25.90;99.90;;;;;;5025187;28;20045;-81
2023/09/11 10:48:52;;;;;;;20.67;12.55;;;25.90;99.90;;;;;;5022882;28;20179;-88
2023/09/11 10:51:18;;;;;;;14.45;12.95;;;25.90;99.90;;;;;;5024498;28;20034;-83
2023/09/11 10:53:47;;;;;;;15.98;12.88;;;25.90;99.90;;;;;;5019187;28;20046;-83
2023/09/11 10:56:14;;;;;;;16.55;12.00;;;25.90;99.90;;;;;;5023423;28;20045;-88
2023/09/11 10:58:40;;;;;;;17.17;11.20;;;26.00;99.90;;;;;;5028829;28;20045;-89
2023/09/11 11:01:06;;;;;;;15.82;11.25;;;26.10;99.90;;;;;;5003996;28;20068;-88
2023/09/11 11:03:33;;;;;;;16.67;10.20;;;26.10;99.90;;;;;;5021260;28;20077;-89
2023/09/11 11:06:01;;;;;;;17.85;12.20;;;26.20;99.90;;;;;;5026360;28;20578;-90
2023/09/11 11:08:34;;;;;;;14.98;12.50;;;26.20;99.90;;;;;;5023036;28;20498;-87
2023/09/11 11:11:01;;;;;;;22.08;13.27;;;26.20;99.90;;;;;;5026406;28;20512;-87
2023/09/11 11:13:28;;;;;;;18.58;12.38;;;26.30;99.90;;;;;;5021214;28;20120;-88
2023/09/11 11:16:19;;;;;;;21.33;11.93;;;26.30;99.90;;;;;;5035976;28;20412;-87
2023/09/11 11:18:45;;;;;;;13.23;11.75;;;26.50;99.90;;;;;;5027994;28;20096;-88
2023/09/11 11:21:11;;;;;;;17.98;12.57;;;27.40;99.90;;;;;;5028447;28;20046;-88
2023/09/11 11:23:58;;;;;;;17.92;11.63;;;26.60;99.90;;;;;;5019047;28;20046;-87
2023/09/11 11:26:25;;;;;;;16.38;11.98;;;26.60;99.90;;;;;;5019610;28;20038;-88
2023/09/11 11:28:51;;;;;;;16.27;11.38;;;26.70;99.90;;;;;;5028050;28;20241;-88
2023/09/11 11:31:21;;;;;;;20.13;13.07;;;26.70;99.90;;;;;;5029755;28;20045;-88
2023/09/11 11:33:50;;;;;;;22.42;12.25;;;26.80;99.90;;;;;;5022265;28;20564;-89
2023/09/11 11:36:20;;;;;;;14.70;10.60;;;26.80;99.90;;;;;;5023357;28;20450;-91
2023/09/11 11:38:46;;;;;;;21.88;13.85;;;26.90;99.90;;;;;;5021753;28;20090;-87
2023/09/11 11:41:13;;;;;;;17.88;12.63;;;26.40;99.90;;;;;;5006164;28;20497;-88
2023/09/11 11:43:42;;;;;;;11.75;9.57;;;27.00;99.90;;;;;;5022537;28;20037;-88
2023/09/11 11:46:10;;;;;;;18.98;13.60;;;27.10;99.90;;;;;;5020803;28;20112;-88
2023/09/11 11:48:37;;;;;;;14.95;11.50;;;27.10;99.90;;;;;;5023068;28;20521;-87
2023/09/11 11:51:03;;;;;;;16.70;13.10;;;27.20;99.90;;;;;;5021899;28;20511;-89
2023/09/11 11:53:31;;;;;;;19.58;12.15;;;27.20;99.90;;;;;;5030583;28;20065;-91
2023/09/11 11:55:58;;;;;;;14.35;8.13;;;27.30;99.90;;;;;;5019787;28;20056;-90
2023/09/11 11:58:25;;;;;;;13.98;7.22;;;27.30;99.90;;;;;;5003684;28;20563;-87
2023/09/11 12:01:03;;;;;;;10.25;5.93;;;27.40;99.90;;;;;;5022176;28;20053;-91
2023/09/11 12:03:44;;;;;;;11.43;6.18;;;27.50;99.90;;;;;;5024920;28;20505;-88
2023/09/11 12:06:10;;;;;;;11.07;6.32;;;27.60;99.90;;;;;;5020220;28;20549;-89
2023/09/11 12:08:36;;;;;;;11.38;6.93;;;27.70;99.90;;;;;;5022076;28;20046;-89
2023/09/11 12:11:02;;;;;;;13.07;6.15;;;27.70;99.90;;;;;;5033215;28;20370;-93
2023/09/11 12:13:28;;;;;;;9.65;5.88;;;27.70;99.90;;;;;;5017601;28;20040;-88
2023/09/11 12:15:56;;;;;;;11.07;6.05;;;27.70;99.90;;;;;;5017854;28;20037;-90
2023/09/11 12:18:23;;;;;;;11.35;7.30;;;27.80;99.90;;;;;;5019435;28;20038;-91
2023/09/11 12:20:54;;;;;;;14.60;8.07;;;27.90;99.90;;;;;;5022774;28;20132;-88
2023/09/11 12:23:19;;;;;;;10.55;7.18;;;27.90;99.90;;;;;;5030674;28;20128;-92
2023/09/11 12:25:46;;;;;;;12.95;6.43;;;27.90;99.90;;;;;;5028213;28;20485;-90
2023/09/11 12:28:12;;;;;;;14.65;7.10;;;27.90;99.90;;;;;;5007358;28;20076;-87
2023/09/11 12:30:38;;;;;;;10.93;5.88;;;27.90;99.90;;;;;;5030217;28;20485;-91